Time;durP1;ratioP1;P1;durP2;ratioP2;P2;SDS_P1;SDS_P2;PMS_P1;PMS_P2;Temp;Humidity;BMP_temperature;BMP_pressure;BME280_temperature;BME280_humidity;BME280_pressure;Samples;Min_cycle;Max_cycle;Signal;HPM_P1;HPM_P2
2022/03/13 08:41:47;;;;;;;9.63;7.68;;;8.40;99.90;;;;;;5090990;28;20567;-75
2022/03/13 08:44:13;;;;;;;11.93;7.50;;;8.50;99.90;;;;;;5090976;28;20171;-75
2022/03/13 08:46:39;;;;;;;12.20;7.70;;;8.60;99.90;;;;;;5090827;28;20247;-75
2022/03/13 08:49:06;;;;;;;9.77;8.05;;;8.60;99.90;;;;;;5090786;28;20202;-75
2022/03/13 08:51:32;;;;;;;13.05;8.20;;;8.70;99.90;;;;;;5089448;28;20179;-78
2022/03/13 08:53:57;;;;;;;17.92;9.95;;;8.70;99.90;;;;;;5090708;28;20168;-79
2022/03/13 08:56:23;;;;;;;15.15;8.98;;;8.80;99.90;;;;;;5090587;28;20172;-80
2022/03/13 08:58:49;;;;;;;11.73;7.60;;;8.80;99.90;;;;;;5090640;28;20653;-78
2022/03/13 09:01:14;;;;;;;11.93;7.97;;;8.80;99.90;;;;;;5090442;28;20606;-78
2022/03/13 09:03:41;;;;;;;13.43;9.02;;;8.90;99.90;;;;;;5090475;28;20191;-77
2022/03/13 09:06:06;;;;;;;10.45;8.10;;;9.00;99.90;;;;;;5090485;28;20216;-79
2022/03/13 09:08:32;;;;;;;15.60;9.25;;;9.10;99.90;;;;;;5089153;28;20573;-79
2022/03/13 09:10:58;;;;;;;12.00;8.77;;;9.20;99.90;;;;;;5089141;28;20187;-78
2022/03/13 09:13:23;;;;;;;16.52;8.15;;;9.30;99.90;;;;;;5090301;28;20172;-79
2022/03/13 09:15:50;;;;;;;12.75;9.63;;;9.30;99.90;;;;;;5090372;28;20175;-79
2022/03/13 09:18:15;;;;;;;12.68;9.20;;;9.40;99.90;;;;;;5090240;28;20168;-79
2022/03/13 09:20:41;;;;;;;14.13;8.70;;;9.40;99.90;;;;;;5090030;28;20722;-78
2022/03/13 09:23:07;;;;;;;12.38;9.18;;;9.30;99.90;;;;;;5090172;28;20164;-73
2022/03/13 09:25:34;;;;;;;12.18;9.50;;;9.50;99.90;;;;;;5090298;28;20213;-73
2022/03/13 09:28:00;;;;;;;13.05;9.60;;;9.60;99.90;;;;;;5088895;28;20168;-73
2022/03/13 09:30:26;;;;;;;11.18;8.70;;;9.70;99.90;;;;;;5090713;28;20160;-73
2022/03/13 09:32:51;;;;;;;15.63;9.75;;;9.70;99.90;;;;;;5088627;28;20561;-73
2022/03/13 09:35:17;;;;;;;13.43;10.02;;;9.80;99.90;;;;;;5089907;28;20168;-73
2022/03/13 09:37:43;;;;;;;13.27;9.55;;;9.90;99.90;;;;;;5088766;28;20267;-73
2022/03/13 09:40:10;;;;;;;16.77;10.20;;;9.90;99.90;;;;;;5089586;28;20314;-73
2022/03/13 09:42:37;;;;;;;12.02;8.57;;;9.90;99.90;;;;;;5089899;28;20174;-73
2022/03/13 09:45:03;;;;;;;12.45;9.48;;;10.00;99.90;;;;;;5089726;28;20168;-73
2022/03/13 09:47:29;;;;;;;14.18;9.60;;;10.10;99.90;;;;;;5089595;28;20234;-73
2022/03/13 09:49:55;;;;;;;14.38;9.95;;;10.20;99.90;;;;;;5089628;28;20172;-73
2022/03/13 09:52:21;;;;;;;13.95;9.18;;;10.20;99.90;;;;;;5080622;28;20171;-73
2022/03/13 09:54:46;;;;;;;14.43;9.48;;;10.30;99.90;;;;;;5076057;28;20206;-73
2022/03/13 09:57:12;;;;;;;17.20;9.45;;;10.40;99.90;;;;;;5075993;28;20165;-73
2022/03/13 09:59:38;;;;;;;11.98;8.95;;;10.50;99.90;;;;;;5075871;28;20172;-73
2022/03/13 10:02:05;;;;;;;12.88;8.55;;;10.50;99.90;;;;;;5075854;28;20614;-73
2022/03/13 10:04:31;;;;;;;14.65;8.98;;;10.70;99.90;;;;;;5075854;28;20176;-73
2022/03/13 10:07:01;;;;;;;16.17;10.20;;;10.80;99.90;;;;;;5075838;28;20164;-73
2022/03/13 10:09:29;;;;;;;16.80;9.65;;;10.90;99.90;;;;;;5075754;28;20171;-73
2022/03/13 10:12:08;;;;;;;13.85;9.40;;;11.00;99.90;;;;;;5075714;28;20172;-73
2022/03/13 10:14:38;;;;;;;11.50;8.95;;;11.00;99.90;;;;;;5075547;28;20157;-73
2022/03/13 10:17:23;;;;;;;12.15;8.65;;;11.00;99.90;;;;;;5075591;28;20171;-73
2022/03/13 10:19:49;;;;;;;12.80;8.57;;;11.10;99.90;;;;;;5075624;28;20200;-73
2022/03/13 10:22:15;;;;;;;13.30;9.43;;;11.20;99.90;;;;;;5075568;28;20271;-73
2022/03/13 10:24:43;;;;;;;9.90;8.02;;;11.30;99.90;;;;;;5075503;28;20522;-73
2022/03/13 10:27:16;;;;;;;13.48;9.30;;;11.30;99.90;;;;;;5074190;28;20176;-73
2022/03/13 10:29:42;;;;;;;11.90;9.27;;;11.40;99.90;;;;;;5075374;28;20273;-73
2022/03/13 10:32:11;;;;;;;18.58;10.27;;;11.40;99.90;;;;;;5075547;28;20194;-73
2022/03/13 10:34:37;;;;;;;11.65;8.52;;;11.60;99.90;;;;;;5075348;28;20187;-73
2022/03/13 10:37:03;;;;;;;18.55;10.93;;;11.40;99.90;;;;;;5075215;28;20625;-73
2022/03/13 10:39:30;;;;;;;16.23;10.27;;;11.50;99.90;;;;;;5074992;28;20168;-73
2022/03/13 10:42:01;;;;;;;15.48;10.07;;;11.40;99.90;;;;;;5075251;28;20173;-73
2022/03/13 10:44:31;;;;;;;12.45;9.18;;;11.40;99.90;;;;;;5075199;28;20255;-73
2022/03/13 10:46:59;;;;;;;15.75;9.73;;;11.40;99.90;;;;;;5073843;28;20182;-73
2022/03/13 10:49:36;;;;;;;14.57;9.77;;;11.40;99.90;;;;;;5075016;28;20168;-73
2022/03/13 10:52:16;;;;;;;12.43;8.75;;;11.40;99.90;;;;;;5074986;28;20164;-73
2022/03/13 10:54:46;;;;;;;13.73;10.07;;;11.50;99.90;;;;;;5074918;28;20164;-73
2022/03/13 10:57:12;;;;;;;13.63;9.07;;;11.50;99.90;;;;;;5074834;28;20169;-74
2022/03/13 10:59:41;;;;;;;15.30;10.05;;;11.50;99.90;;;;;;5074783;28;20180;-74
2022/03/13 11:02:21;;;;;;;14.65;10.15;;;11.50;99.90;;;;;;5074728;28;20163;-74
2022/03/13 11:04:55;;;;;;;13.18;9.23;;;11.60;99.90;;;;;;5073746;28;20157;-73
2022/03/13 11:07:22;;;;;;;11.20;8.85;;;11.60;99.90;;;;;;5073279;28;20172;-73
2022/03/13 11:09:49;;;;;;;12.52;9.27;;;11.70;99.90;;;;;;5074459;28;20193;-73
2022/03/13 11:12:22;;;;;;;13.65;9.55;;;11.70;99.90;;;;;;5074600;28;20169;-73
2022/03/13 11:15:00;;;;;;;12.80;9.77;;;11.80;99.90;;;;;;5074449;28;20232;-73
2022/03/13 11:17:28;;;;;;;13.88;8.82;;;11.80;99.90;;;;;;5074491;28;20161;-73
2022/03/13 11:19:58;;;;;;;14.85;10.70;;;11.90;99.90;;;;;;5073168;28;20250;-73
2022/03/13 11:22:26;;;;;;;17.27;11.57;;;11.90;99.90;;;;;;5073966;28;20184;-73
2022/03/13 11:24:55;;;;;;;14.82;10.98;;;12.00;99.90;;;;;;5074326;28;20164;-73
2022/03/13 11:27:24;;;;;;;14.52;9.65;;;12.00;99.90;;;;;;5074069;28;20622;-73
2022/03/13 11:29:53;;;;;;;15.00;10.00;;;12.00;99.90;;;;;;5074141;28;20192;-73
2022/03/13 11:32:30;;;;;;;12.13;9.20;;;12.00;99.90;;;;;;5073867;28;20172;-73
2022/03/13 11:35:13;;;;;;;11.02;9.75;;;12.00;99.90;;;;;;5074107;28;20164;-73
2022/03/13 11:37:47;;;;;;;13.43;9.07;;;12.00;99.90;;;;;;5072816;28;20323;-73
2022/03/13 11:40:28;;;;;;;23.13;11.30;;;12.00;99.90;;;;;;5073961;28;20216;-73
2022/03/13 11:42:56;;;;;;;13.57;9.82;;;12.10;99.90;;;;;;5073962;28;20179;-73
2022/03/13 11:45:30;;;;;;;11.63;9.52;;;12.10;99.90;;;;;;5073956;28;20251;-73
2022/03/13 11:50:58;;;;;;;12.20;8.80;;;12.40;99.90;;;;;;5073190;28;20211;-73
2022/03/13 11:53:44;;;;;;;11.80;8.55;;;12.40;99.90;;;;;;5073770;28;20255;-73
2022/03/13 11:56:27;;;;;;;14.13;9.63;;;12.50;99.90;;;;;;5073714;28;20164;-73
2022/03/13 11:59:12;;;;;;;15.52;9.25;;;12.60;99.90;;;;;;5073629;28;20229;-73
2022/03/13 12:01:38;;;;;;;13.30;8.63;;;12.60;99.90;;;;;;5073611;28;20248;-73
2022/03/13 12:04:04;;;;;;;12.32;7.97;;;12.80;99.90;;;;;;5073661;28;20192;-73
2022/03/13 12:06:41;;;;;;;12.98;8.60;;;13.30;99.90;;;;;;5073569;28;20176;-73
2022/03/13 12:09:14;;;;;;;9.18;8.23;;;12.90;99.90;;;;;;5073565;28;20168;-73
2022/03/13 12:11:58;;;;;;;11.60;8.55;;;13.00;99.90;;;;;;5073535;28;20253;-73
2022/03/13 12:14:52;;;;;;;10.95;8.60;;;13.00;99.90;;;;;;5073549;28;20165;-73
2022/03/13 12:17:19;;;;;;;12.75;8.45;;;13.10;99.90;;;;;;5073280;28;20566;-73
2022/03/13 12:19:45;;;;;;;8.65;7.60;;;13.20;99.90;;;;;;5072239;28;20176;-73
2022/03/13 12:22:12;;;;;;;9.57;7.22;;;13.20;99.90;;;;;;5073295;28;20668;-73
2022/03/13 12:24:38;;;;;;;8.40;7.38;;;13.30;99.90;;;;;;5071852;28;20172;-73
2022/03/13 12:27:07;;;;;;;9.68;8.75;;;13.40;99.90;;;;;;5073289;28;20351;-71
2022/03/13 12:29:32;;;;;;;9.82;7.68;;;13.50;99.90;;;;;;5073227;28;20164;-71
2022/03/13 12:32:00;;;;;;;9.90;7.68;;;13.60;99.90;;;;;;5073199;28;20625;-71
2022/03/13 12:34:27;;;;;;;12.15;8.88;;;13.60;99.90;;;;;;5073079;28;20563;-71
2022/03/13 12:36:57;;;;;;;12.23;7.47;;;13.60;99.90;;;;;;5073125;28;20160;-72
2022/03/13 12:39:23;;;;;;;9.85;7.97;;;13.70;99.90;;;;;;5073038;28;20218;-72
2022/03/13 12:41:59;;;;;;;8.70;7.25;;;13.80;99.90;;;;;;5073073;28;20177;-71
2022/03/13 12:44:27;;;;;;;9.10;7.95;;;14.00;99.90;;;;;;5073207;28;20237;-71
2022/03/13 12:46:54;;;;;;;12.52;8.02;;;14.10;99.90;;;;;;5071851;28;20260;-71
2022/03/13 12:49:27;;;;;;;8.52;7.22;;;14.30;99.90;;;;;;5073156;28;20176;-71
2022/03/13 12:51:53;;;;;;;10.48;7.43;;;14.50;99.90;;;;;;5071824;28;20245;-71
2022/03/13 12:54:21;;;;;;;11.75;9.05;;;14.50;99.90;;;;;;5073060;28;20176;-71
2022/03/13 12:56:52;;;;;;;9.38;7.47;;;14.50;99.90;;;;;;5072997;28;20167;-71
2022/03/13 12:59:22;;;;;;;7.43;6.63;;;14.60;99.90;;;;;;5073120;28;20172;-71
2022/03/13 13:02:18;;;;;;;8.60;6.78;;;14.60;99.90;;;;;;5071722;28;20263;-71
2022/03/13 13:04:49;;;;;;;8.13;6.68;;;14.70;99.90;;;;;;5073009;28;20164;-71
2022/03/13 13:07:17;;;;;;;8.70;6.15;;;14.80;99.90;;;;;;5073035;28;20234;-71
2022/03/13 13:09:45;;;;;;;7.63;5.85;;;14.90;99.90;;;;;;5072811;28;20172;-72
2022/03/13 13:12:18;;;;;;;8.68;6.25;;;15.00;99.90;;;;;;5072928;28;20245;-71
2022/03/13 13:14:44;;;;;;;7.53;6.28;;;15.20;99.90;;;;;;5072952;28;20691;-71
2022/03/13 13:17:12;;;;;;;6.63;6.07;;;15.30;99.90;;;;;;5072879;28;20225;-71
2022/03/13 13:19:44;;;;;;;7.75;6.03;;;15.30;99.90;;;;;;5072838;28;20165;-71
2022/03/13 13:22:11;;;;;;;8.13;5.57;;;15.50;99.90;;;;;;5072066;28;20190;-71
2022/03/13 13:24:58;;;;;;;6.90;5.72;;;15.50;99.90;;;;;;5072559;28;20172;-71
2022/03/13 13:27:29;;;;;;;7.45;5.32;;;15.60;99.90;;;;;;5074467;28;20218;-71
2022/03/13 13:29:55;;;;;;;5.13;4.72;;;15.70;99.90;;;;;;5076469;28;20287;-71
2022/03/13 13:32:32;;;;;;;5.90;5.32;;;15.70;99.90;;;;;;5075124;28;20203;-71
2022/03/13 13:35:07;;;;;;;5.50;5.00;;;15.80;99.90;;;;;;5076430;28;20621;-71
2022/03/13 13:37:34;;;;;;;5.68;5.18;;;15.90;99.90;;;;;;5076396;28;20210;-71
2022/03/13 13:40:11;;;;;;;5.90;5.40;;;16.10;99.90;;;;;;5076295;28;20219;-72
2022/03/13 13:42:39;;;;;;;5.38;4.97;;;16.20;99.90;;;;;;5076319;28;20179;-71
2022/03/13 13:45:27;;;;;;;6.45;4.40;;;16.20;99.90;;;;;;5076249;28;20194;-71
2022/03/13 13:47:54;;;;;;;5.40;4.93;;;16.40;99.90;;;;;;5076057;28;20191;-71
2022/03/13 13:50:24;;;;;;;6.07;5.50;;;16.50;99.90;;;;;;5076123;28;20196;-71
2022/03/13 13:53:01;;;;;;;6.32;5.55;;;16.60;99.90;;;;;;5076142;28;20164;-71
2022/03/13 13:55:33;;;;;;;5.25;4.75;;;16.60;99.90;;;;;;5076045;28;20164;-71
2022/03/13 13:58:32;;;;;;;4.00;3.70;;;16.70;99.90;;;;;;5074854;28;20172;-72
2022/03/13 14:01:22;;;;;;;3.72;3.53;;;16.70;99.90;;;;;;5075981;28;20173;-71
2022/03/13 14:03:48;;;;;;;4.00;3.70;;;16.70;99.90;;;;;;5076007;28;20616;-71
2022/03/13 14:06:18;;;;;;;4.28;3.97;;;16.80;99.90;;;;;;5075883;28;20164;-71
2022/03/13 14:08:49;;;;;;;3.15;2.95;;;16.80;99.90;;;;;;5075895;28;20169;-71
2022/03/13 14:11:17;;;;;;;5.85;5.35;;;16.90;99.90;;;;;;5074536;28;20199;-72
2022/03/13 14:13:43;;;;;;;4.50;4.10;;;17.00;99.90;;;;;;5075839;28;20171;-72
2022/03/13 14:16:09;;;;;;;4.28;3.95;;;16.90;99.90;;;;;;5076220;28;20516;-72
2022/03/13 14:18:34;;;;;;;4.60;4.25;;;16.90;99.90;;;;;;5074393;28;20168;-71
2022/03/13 14:21:02;;;;;;;4.63;4.28;;;17.00;99.90;;;;;;5074290;28;20660;-71
2022/03/13 14:23:28;;;;;;;5.65;4.55;;;17.10;99.90;;;;;;5074568;28;20267;-72
2022/03/13 14:25:54;;;;;;;4.70;4.30;;;17.10;99.90;;;;;;5075521;28;20179;-71
2022/03/13 14:28:22;;;;;;;5.05;4.65;;;17.10;99.90;;;;;;5075521;28;20168;-71
2022/03/13 14:30:49;;;;;;;4.45;4.15;;;17.10;99.90;;;;;;5074055;28;20227;-71
2022/03/13 14:33:14;;;;;;;4.97;4.57;;;16.90;99.90;;;;;;5075376;28;20234;-71
2022/03/13 14:35:40;;;;;;;3.60;3.30;;;16.90;99.90;;;;;;5075410;28;20630;-72
2022/03/13 14:38:05;;;;;;;3.88;3.58;;;17.00;99.90;;;;;;5075197;28;20173;-71
2022/03/13 14:40:31;;;;;;;5.05;3.70;;;17.00;99.90;;;;;;5075149;28;20224;-72
2022/03/13 14:42:57;;;;;;;3.38;2.90;;;17.20;99.90;;;;;;5075286;28;20713;-72
2022/03/13 14:45:22;;;;;;;3.20;2.97;;;17.30;99.90;;;;;;5075117;28;20207;-72
2022/03/13 14:47:48;;;;;;;3.22;3.03;;;17.40;99.90;;;;;;5075143;28;20255;-71
2022/03/13 14:50:13;;;;;;;6.32;3.97;;;17.50;99.90;;;;;;5075057;28;20194;-72
2022/03/13 14:52:39;;;;;;;6.90;4.85;;;17.60;99.90;;;;;;5075010;28;20683;-72
2022/03/13 14:55:06;;;;;;;5.97;4.20;;;17.60;99.90;;;;;;5075086;28;20561;-72
2022/03/13 14:57:32;;;;;;;5.25;4.78;;;17.60;99.90;;;;;;5074909;28;20210;-72
2022/03/13 14:59:58;;;;;;;4.47;4.10;;;17.70;99.90;;;;;;5073628;28;20164;-72
2022/03/13 15:02:23;;;;;;;5.90;5.40;;;17.80;99.90;;;;;;5074666;28;20183;-72
2022/03/13 15:04:49;;;;;;;5.55;5.00;;;17.80;99.90;;;;;;5073490;28;20172;-72
2022/03/13 15:07:15;;;;;;;4.68;4.38;;;17.80;99.90;;;;;;5074690;28;20263;-72
2022/03/13 15:09:40;;;;;;;5.03;4.55;;;17.70;99.90;;;;;;5074614;28;20164;-72
2022/03/13 15:12:10;;;;;;;4.47;4.18;;;17.60;99.90;;;;;;5074627;28;20161;-72
2022/03/13 15:14:36;;;;;;;6.50;4.78;;;17.50;99.90;;;;;;5074498;28;20574;-72
2022/03/13 15:17:03;;;;;;;4.63;4.22;;;17.40;99.90;;;;;;5074491;28;20255;-72
2022/03/13 15:19:28;;;;;;;6.15;5.18;;;17.40;99.90;;;;;;5074503;28;20629;-72
2022/03/13 15:21:54;;;;;;;6.80;4.40;;;17.30;99.90;;;;;;5073129;28;20191;-72
2022/03/13 15:24:20;;;;;;;4.30;3.90;;;17.20;99.90;;;;;;5074297;28;20176;-72
2022/03/13 15:26:45;;;;;;;4.47;4.07;;;17.20;99.90;;;;;;5074238;28;20176;-72
2022/03/13 15:29:11;;;;;;;4.68;3.95;;;17.10;99.90;;;;;;5074134;28;20168;-72
2022/03/13 15:31:36;;;;;;;3.90;3.53;;;16.90;99.90;;;;;;5074116;28;20226;-72
2022/03/13 15:34:02;;;;;;;3.90;3.60;;;16.80;99.90;;;;;;5074175;28;20575;-72
2022/03/13 15:36:28;;;;;;;3.65;3.45;;;16.60;99.90;;;;;;5074109;28;20648;-72
2022/03/13 15:38:57;;;;;;;4.03;3.28;;;16.50;99.90;;;;;;5074046;28;20172;-69
2022/03/13 15:41:22;;;;;;;3.65;3.45;;;16.30;99.90;;;;;;5073875;28;20265;-69
2022/03/13 15:43:48;;;;;;;4.50;4.10;;;16.20;99.90;;;;;;5073970;28;20175;-69
2022/03/13 15:46:13;;;;;;;4.03;3.63;;;16.10;99.90;;;;;;5073880;28;20175;-69
2022/03/13 15:48:39;;;;;;;4.15;3.85;;;16.00;99.90;;;;;;5072527;28;20646;-69
2022/03/13 15:51:06;;;;;;;3.47;3.28;;;15.90;99.90;;;;;;5073222;28;20223;-69
2022/03/13 15:53:31;;;;;;;3.67;3.33;;;15.80;99.90;;;;;;5073745;28;20157;-72
2022/03/13 15:55:57;;;;;;;3.97;3.58;;;15.60;99.90;;;;;;5073767;28;20298;-72
2022/03/13 15:58:28;;;;;;;3.55;3.00;;;15.60;99.90;;;;;;5073540;28;20508;-72
2022/03/13 16:01:08;;;;;;;3.20;3.00;;;15.40;99.90;;;;;;5073674;28;20169;-72
2022/03/13 16:03:34;;;;;;;3.63;3.35;;;15.30;99.90;;;;;;5073686;28;20187;-72
2022/03/13 16:05:59;;;;;;;3.35;3.05;;;15.30;99.90;;;;;;5073604;28;20168;-70
2022/03/13 16:08:25;;;;;;;2.50;2.40;;;15.20;99.90;;;;;;5073526;28;20168;-70
2022/03/13 16:10:50;;;;;;;2.78;2.55;;;15.10;99.90;;;;;;5073296;28;20222;-70
2022/03/13 16:13:16;;;;;;;2.92;2.72;;;15.00;99.90;;;;;;5073449;28;20514;-70
2022/03/13 16:15:43;;;;;;;3.20;3.00;;;14.80;99.90;;;;;;5073448;28;20240;-70
2022/03/13 16:18:13;;;;;;;3.10;2.90;;;14.70;99.90;;;;;;5073371;28;20172;-71
2022/03/13 16:20:40;;;;;;;3.72;3.42;;;14.60;99.90;;;;;;5073429;28;20172;-71
2022/03/13 16:23:06;;;;;;;3.95;3.65;;;14.40;99.90;;;;;;5073136;28;20621;-71
2022/03/13 16:25:32;;;;;;;4.10;3.80;;;14.30;99.90;;;;;;5073351;28;20175;-71
2022/03/13 16:27:59;;;;;;;3.85;3.55;;;14.30;99.90;;;;;;5073331;28;20176;-71
2022/03/13 16:30:25;;;;;;;6.55;3.25;;;14.20;99.90;;;;;;5073146;28;20189;-71
2022/03/13 16:32:51;;;;;;;3.58;3.38;;;14.10;99.90;;;;;;5073288;28;20188;-71
2022/03/13 16:35:17;;;;;;;3.85;3.55;;;14.10;99.90;;;;;;5073168;28;20208;-71
2022/03/13 16:37:43;;;;;;;3.95;3.55;;;14.00;99.90;;;;;;5071891;28;20165;-71
2022/03/13 16:40:11;;;;;;;3.95;3.65;;;14.10;99.90;;;;;;5073192;28;20553;-71
2022/03/13 16:42:37;;;;;;;4.40;4.00;;;13.90;99.90;;;;;;5073142;28;20176;-71
2022/03/13 16:45:05;;;;;;;4.30;4.00;;;13.80;99.90;;;;;;5073087;28;20649;-71
2022/03/13 16:47:31;;;;;;;3.88;3.63;;;13.60;99.90;;;;;;5073025;28;20168;-71
2022/03/13 16:49:58;;;;;;;5.00;4.50;;;13.50;99.90;;;;;;5073382;28;20664;-71
2022/03/13 16:52:23;;;;;;;4.38;4.07;;;13.40;99.90;;;;;;5073008;28;20172;-71
2022/03/13 16:54:49;;;;;;;5.20;4.80;;;13.30;99.90;;;;;;5073044;28;20164;-71
2022/03/13 16:57:16;;;;;;;4.97;4.55;;;13.20;99.90;;;;;;5073050;28;20172;-70
2022/03/13 16:59:42;;;;;;;4.85;4.55;;;13.10;99.90;;;;;;5071948;28;20184;-71
2022/03/13 17:02:08;;;;;;;6.13;5.00;;;13.00;99.90;;;;;;5074440;28;20165;-70
2022/03/13 17:04:34;;;;;;;5.13;4.60;;;12.90;99.90;;;;;;5076943;28;20169;-70
2022/03/13 17:07:00;;;;;;;6.65;5.30;;;12.80;99.90;;;;;;5076844;28;20533;-70
2022/03/13 17:09:25;;;;;;;5.57;5.07;;;12.70;99.90;;;;;;5076812;28;20226;-71
